AXI700 KSAV-LGAV
Flight info
| Callsign | AXI700 |
|---|---|
| Flight time | N/A |
| Altitude | 41000 |
| Route | JROSS DCT JOHAR Q109 DFENC DCT SAWED Q64 KALDA Q439 ZJAAY Q97 YAZUU Q167 RIFLE DCT SHHAR DCT TUSKY N629B RIKAL/M090F410 DCT 53N050W 54N040W 54N030W 53N020W DCT LIMRI DCT XETBO DCT LULOX/N0514F410 DCT LIZAD DCT JSY DCT TURDU DCT TADUP DCT TEPRI DCT POGZI DCT GELTA DCT LUVAL DCT BEGAR DCT TRA DCT GAMSA DCT GEDSO DCT VEKEN DCT ELTIB DCT ENFAR DCT TALAS UN130 TSL UL617 SKP UM749 ROPOX |
| Aircraft | GLF6/M-SBDE2E3FGHIJ4J5M1RWXY/LB1D1 |
Departure
| Time | 2026-04-20 13:15 |
|---|---|
| Airport | Savannah Hilton Head International Airport (KSAV) |
Arrival
| Time | N/A |
|---|---|
| Airport | Athens Eleftherios Venizelos International Airport (LGAV) |
| Time | Latitude | Longitude | Altitude | Speed | Heading |
|---|---|---|---|---|---|
| 2026-04-20 12:42 | 32.13510 | -81.19481 | 52 ft | 0 kts | 87° |
| 2026-04-20 13:06 | 32.13510 | -81.19480 | 42 ft | 0 kts | 86° |
| 2026-04-20 13:06 | 32.13528 | -81.19460 | 50 ft | 7 kts | 17° |
| 2026-04-20 13:07 | 32.13563 | -81.19467 | 52 ft | 0 kts | 329° |
| 2026-04-20 13:08 | 32.13563 | -81.19468 | 52 ft | 0 kts | 329° |
| 2026-04-20 13:08 | 32.13568 | -81.19482 | 49 ft | 7 kts | 283° |
| 2026-04-20 13:08 | 32.13568 | -81.19567 | 47 ft | 11 kts | 268° |
| 2026-04-20 13:08 | 32.13564 | -81.19663 | 54 ft | 13 kts | 268° |
| 2026-04-20 13:09 | 32.13557 | -81.19779 | 56 ft | 14 kts | 256° |
| 2026-04-20 13:09 | 32.13485 | -81.19821 | 55 ft | 13 kts | 179° |
| 2026-04-20 13:09 | 32.13381 | -81.19819 | 55 ft | 17 kts | 179° |
| 2026-04-20 13:09 | 32.13246 | -81.19818 | 52 ft | 21 kts | 179° |
| 2026-04-20 13:10 | 32.13082 | -81.19816 | 49 ft | 25 kts | 179° |
| 2026-04-20 13:10 | 32.12899 | -81.19816 | 51 ft | 26 kts | 180° |
| 2026-04-20 13:10 | 32.12730 | -81.19813 | 45 ft | 24 kts | 180° |
| 2026-04-20 13:10 | 32.12564 | -81.19815 | 48 ft | 23 kts | 180° |
| 2026-04-20 13:11 | 32.12407 | -81.19811 | 46 ft | 22 kts | 179° |
| 2026-04-20 13:11 | 32.12249 | -81.19810 | 41 ft | 23 kts | 179° |
| 2026-04-20 13:11 | 32.12089 | -81.19806 | 39 ft | 22 kts | 178° |
| 2026-04-20 13:11 | 32.11934 | -81.19807 | 35 ft | 23 kts | 180° |
| 2026-04-20 13:12 | 32.11809 | -81.19807 | 32 ft | 10 kts | 180° |
| 2026-04-20 13:12 | 32.11741 | -81.19815 | 31 ft | 10 kts | 194° |
| 2026-04-20 13:12 | 32.11689 | -81.19852 | 31 ft | 8 kts | 226° |
| 2026-04-20 13:12 | 32.11676 | -81.19880 | 31 ft | 0 kts | 252° |
| 2026-04-20 13:13 | 32.11664 | -81.19922 | 31 ft | 13 kts | 257° |
| 2026-04-20 13:13 | 32.11663 | -81.19974 | 32 ft | 8 kts | 272° |
| 2026-04-20 13:14 | 32.11690 | -81.19999 | 33 ft | 0 kts | 357° |
| 2026-04-20 13:14 | 32.11785 | -81.20002 | 37 ft | 40 kts | 359° |
| 2026-04-20 13:14 | 32.12269 | -81.20007 | 43 ft | 100 kts | 360° |
| 2026-04-20 13:15 | 32.13124 | -81.20002 | 66 ft | 139 kts | 1° |
| 2026-04-20 13:15 | 32.14081 | -81.20008 | 557 ft | 138 kts | 4° |
| 2026-04-20 13:15 | 32.15081 | -81.19923 | 934 ft | 160 kts | 4° |
| 2026-04-20 13:15 | 32.16411 | -81.19911 | 902 ft | 218 kts | 2° |
| 2026-04-20 13:16 | 32.18058 | -81.19849 | 1273 ft | 237 kts | 4° |
| 2026-04-20 13:16 | 32.19662 | -81.19833 | 2138 ft | 234 kts | 4° |
| 2026-04-20 13:16 | 32.21325 | -81.19861 | 3044 ft | 236 kts | 2° |
| 2026-04-20 13:16 | 32.22974 | -81.19796 | 3879 ft | 240 kts | 14° |
| 2026-04-20 13:17 | 32.24362 | -81.18858 | 4690 ft | 236 kts | 46° |
| 2026-04-20 13:17 | 32.25249 | -81.17165 | 5611 ft | 249 kts | 58° |
| 2026-04-20 13:17 | 32.26166 | -81.15372 | 6485 ft | 261 kts | 50° |
| 2026-04-20 13:17 | 32.27378 | -81.13725 | 7308 ft | 270 kts | 40° |
| 2026-04-20 13:18 | 32.28760 | -81.12232 | 8120 ft | 269 kts | 38° |
| 2026-04-20 13:18 | 32.30144 | -81.10681 | 8952 ft | 279 kts | 40° |
| 2026-04-20 13:18 | 32.31529 | -81.09044 | 9814 ft | 282 kts | 39° |
| 2026-04-20 13:18 | 32.32934 | -81.07399 | 10626 ft | 288 kts | 39° |
| 2026-04-20 13:19 | 32.34386 | -81.05721 | 11421 ft | 296 kts | 39° |
| 2026-04-20 13:19 | 32.35864 | -81.04000 | 12242 ft | 300 kts | 39° |
| 2026-04-20 13:19 | 32.37354 | -81.02265 | 12921 ft | 313 kts | 39° |
| 2026-04-20 13:19 | 32.38951 | -81.00412 | 13460 ft | 331 kts | 39° |
| 2026-04-20 13:20 | 32.40634 | -80.98449 | 14038 ft | 349 kts | 39° |
| 2026-04-20 13:20 | 32.42411 | -80.96375 | 14568 ft | 368 kts | 40° |
| 2026-04-20 13:20 | 32.44273 | -80.94199 | 15250 ft | 382 kts | 40° |
| 2026-04-20 13:20 | 32.46181 | -80.91969 | 16146 ft | 390 kts | 40° |
| 2026-04-20 13:21 | 32.48128 | -80.89693 | 17050 ft | 397 kts | 40° |
| 2026-04-20 13:21 | 32.50108 | -80.87380 | 17969 ft | 403 kts | 39° |
| 2026-04-20 13:21 | 32.52118 | -80.85028 | 18863 ft | 409 kts | 39° |
| 2026-04-20 13:21 | 32.54127 | -80.82673 | 19671 ft | 414 kts | 39° |
| 2026-04-20 13:22 | 32.56189 | -80.80260 | 20529 ft | 419 kts | 39° |
| 2026-04-20 13:22 | 32.58268 | -80.77822 | 21394 ft | 422 kts | 38° |
| 2026-04-20 13:22 | 32.60366 | -80.75358 | 22205 ft | 427 kts | 38° |
| 2026-04-20 13:22 | 32.62494 | -80.72864 | 22932 ft | 434 kts | 38° |
| 2026-04-20 13:23 | 32.64662 | -80.70320 | 23609 ft | 443 kts | 38° |
| 2026-04-20 13:23 | 32.66868 | -80.67724 | 24224 ft | 450 kts | 37° |
| 2026-04-20 13:23 | 32.69080 | -80.65121 | 24796 ft | 458 kts | 37° |
| 2026-04-20 13:23 | 32.71354 | -80.62437 | 25384 ft | 465 kts | 38° |
| 2026-04-20 13:24 | 32.73608 | -80.59656 | 25986 ft | 469 kts | 38° |
| 2026-04-20 13:24 | 32.75886 | -80.56877 | 26598 ft | 471 kts | 38° |
| 2026-04-20 13:24 | 32.78194 | -80.54073 | 27221 ft | 477 kts | 38° |
| 2026-04-20 13:24 | 32.80514 | -80.51225 | 27918 ft | 482 kts | 38° |
| 2026-04-20 13:25 | 32.82856 | -80.48341 | 28569 ft | 487 kts | 38° |
| 2026-04-20 13:25 | 32.85223 | -80.45437 | 29237 ft | 491 kts | 38° |
| 2026-04-20 13:25 | 32.87579 | -80.42550 | 29911 ft | 495 kts | 38° |
| 2026-04-20 13:25 | 32.89978 | -80.39598 | 30569 ft | 498 kts | 38° |
| 2026-04-20 13:26 | 32.92387 | -80.36630 | 31164 ft | 500 kts | 38° |
| 2026-04-20 13:26 | 32.94809 | -80.33648 | 31771 ft | 502 kts | 37° |
| 2026-04-20 13:26 | 32.97237 | -80.30655 | 32386 ft | 503 kts | 37° |
| 2026-04-20 13:26 | 32.99671 | -80.27653 | 33017 ft | 504 kts | 37° |
| 2026-04-20 13:27 | 33.02100 | -80.24652 | 33660 ft | 504 kts | 37° |
| 2026-04-20 13:27 | 33.04530 | -80.21648 | 34312 ft | 503 kts | 37° |
| 2026-04-20 13:27 | 33.06949 | -80.18655 | 34874 ft | 501 kts | 36° |
| 2026-04-20 13:27 | 33.09374 | -80.15658 | 35247 ft | 505 kts | 37° |
| 2026-04-20 13:28 | 33.11793 | -80.12671 | 35477 ft | 512 kts | 37° |
| 2026-04-20 13:28 | 33.14279 | -80.09587 | 35727 ft | 518 kts | 37° |
| 2026-04-20 13:28 | 33.16791 | -80.06462 | 35983 ft | 524 kts | 37° |
| 2026-04-20 13:28 | 33.19331 | -80.03308 | 36241 ft | 530 kts | 37° |
| 2026-04-20 13:29 | 33.21899 | -80.00120 | 36500 ft | 535 kts | 37° |
| 2026-04-20 13:29 | 33.24490 | -79.96895 | 36762 ft | 541 kts | 37° |
| 2026-04-20 13:29 | 33.27104 | -79.93636 | 37025 ft | 546 kts | 37° |
| 2026-04-20 13:29 | 33.29741 | -79.90348 | 37328 ft | 550 kts | 38° |
| 2026-04-20 13:30 | 33.32403 | -79.87029 | 37594 ft | 555 kts | 38° |
| 2026-04-20 13:30 | 33.35045 | -79.83728 | 37856 ft | 559 kts | 38° |
| 2026-04-20 13:30 | 33.37743 | -79.80353 | 38130 ft | 563 kts | 38° |
| 2026-04-20 13:30 | 33.40458 | -79.76958 | 38403 ft | 566 kts | 38° |
| 2026-04-20 13:31 | 33.43173 | -79.73551 | 38677 ft | 563 kts | 38° |
| 2026-04-20 13:31 | 33.45860 | -79.70173 | 38937 ft | 561 kts | 38° |
| 2026-04-20 13:31 | 33.48560 | -79.66792 | 39200 ft | 561 kts | 38° |
| 2026-04-20 13:31 | 33.51255 | -79.63415 | 39460 ft | 562 kts | 38° |
| 2026-04-20 13:32 | 33.53949 | -79.60023 | 39769 ft | 561 kts | 39° |
| 2026-04-20 13:32 | 33.56604 | -79.56676 | 40028 ft | 561 kts | 39° |
| 2026-04-20 13:32 | 33.59291 | -79.53294 | 40294 ft | 560 kts | 39° |
| 2026-04-20 13:32 | 33.61973 | -79.49915 | 40565 ft | 559 kts | 39° |
| 2026-04-20 13:33 | 33.64653 | -79.46531 | 40838 ft | 559 kts | 39° |
| 2026-04-20 13:33 | 33.67326 | -79.43152 | 41114 ft | 558 kts | 39° |
| 2026-04-20 13:33 | 33.69996 | -79.39776 | 41344 ft | 558 kts | 39° |
| 2026-04-20 13:34 | 33.75375 | -79.32965 | 41382 ft | 562 kts | 39° |
| 2026-04-20 13:34 | 33.80716 | -79.26185 | 41333 ft | 562 kts | 39° |
| 2026-04-20 13:35 | 33.86091 | -79.19353 | 41334 ft | 563 kts | 39° |
| 2026-04-20 13:35 | 33.91475 | -79.12493 | 41338 ft | 564 kts | 39° |
| 2026-04-20 13:36 | 33.96857 | -79.05622 | 41338 ft | 564 kts | 40° |
| 2026-04-20 13:36 | 34.02213 | -78.98773 | 41340 ft | 569 kts | 40° |
| 2026-04-20 13:37 | 34.07665 | -78.91785 | 41335 ft | 572 kts | 40° |
| 2026-04-20 13:37 | 34.13101 | -78.84802 | 41318 ft | 570 kts | 40° |
| 2026-04-20 13:38 | 34.18536 | -78.77811 | 41321 ft | 572 kts | 40° |
| 2026-04-20 13:38 | 34.23980 | -78.70792 | 41329 ft | 574 kts | 40° |
| 2026-04-20 13:39 | 34.29391 | -78.63798 | 41339 ft | 573 kts | 40° |
| 2026-04-20 13:39 | 34.35087 | -78.57226 | 41338 ft | 556 kts | 30° |
| 2026-04-20 13:40 | 34.41195 | -78.51491 | 41332 ft | 557 kts | 31° |
| 2026-04-20 13:40 | 34.47319 | -78.45714 | 41322 ft | 559 kts | 31° |
| 2026-04-20 13:41 | 34.53454 | -78.39924 | 41331 ft | 558 kts | 31° |
| 2026-04-20 13:41 | 34.59536 | -78.34168 | 41323 ft | 558 kts | 31° |
| 2026-04-20 13:42 | 34.65655 | -78.28368 | 41316 ft | 559 kts | 31° |
| 2026-04-20 13:42 | 34.74859 | -78.19622 | 41318 ft | 560 kts | 31° |
| 2026-04-20 13:43 | 34.80989 | -78.13783 | 41320 ft | 559 kts | 31° |
| 2026-04-20 13:43 | 34.87076 | -78.07974 | 41319 ft | 560 kts | 31° |
| 2026-04-20 13:44 | 34.93205 | -78.02114 | 41321 ft | 561 kts | 31° |
| 2026-04-20 13:44 | 34.99339 | -77.96235 | 41323 ft | 560 kts | 31° |
| 2026-04-20 13:45 | 35.05466 | -77.90355 | 41318 ft | 561 kts | 31° |
| 2026-04-20 13:45 | 35.11605 | -77.84449 | 41316 ft | 562 kts | 32° |
| 2026-04-20 13:46 | 35.17705 | -77.78570 | 41307 ft | 562 kts | 32° |
| 2026-04-20 13:46 | 35.23828 | -77.72656 | 41308 ft | 560 kts | 32° |
| 2026-04-20 13:47 | 35.29949 | -77.66735 | 41312 ft | 561 kts | 32° |
| 2026-04-20 13:47 | 35.36074 | -77.60796 | 41314 ft | 562 kts | 32° |
| 2026-04-20 13:48 | 35.42160 | -77.54886 | 41306 ft | 562 kts | 32° |
| 2026-04-20 13:48 | 35.48291 | -77.48916 | 41281 ft | 563 kts | 32° |
| 2026-04-20 13:49 | 35.54423 | -77.42935 | 41283 ft | 563 kts | 32° |
| 2026-04-20 13:49 | 35.60557 | -77.36941 | 41288 ft | 564 kts | 32° |
| 2026-04-20 13:50 | 35.66684 | -77.30939 | 41285 ft | 562 kts | 32° |
| 2026-04-20 13:50 | 35.72758 | -77.24982 | 41282 ft | 562 kts | 32° |
| 2026-04-20 13:51 | 35.78876 | -77.18965 | 41283 ft | 563 kts | 33° |
| 2026-04-20 13:51 | 35.85003 | -77.12931 | 41290 ft | 565 kts | 33° |
| 2026-04-20 13:52 | 35.90092 | -77.07903 | 41288 ft | 563 kts | 33° |
| 2026-04-20 13:52 | 35.97657 | -77.01929 | 41290 ft | 554 kts | 24° |
| 2026-04-20 13:53 | 36.03226 | -76.97841 | 41290 ft | 556 kts | 24° |
| 2026-04-20 13:53 | 36.10981 | -76.92197 | 41277 ft | 556 kts | 24° |
| 2026-04-20 13:54 | 36.16513 | -76.88137 | 41272 ft | 556 kts | 24° |
| 2026-04-20 13:54 | 36.23171 | -76.83264 | 41273 ft | 557 kts | 24° |
| 2026-04-20 13:55 | 36.29853 | -76.78352 | 41276 ft | 559 kts | 25° |
| 2026-04-20 13:55 | 36.36500 | -76.73461 | 41274 ft | 559 kts | 25° |
| 2026-04-20 13:56 | 36.43188 | -76.68529 | 41273 ft | 559 kts | 25° |
| 2026-04-20 13:56 | 36.49868 | -76.63592 | 41286 ft | 560 kts | 25° |
| 2026-04-20 13:57 | 36.56568 | -76.58632 | 41272 ft | 561 kts | 25° |
| 2026-04-20 13:57 | 36.63279 | -76.53653 | 41272 ft | 561 kts | 25° |
| 2026-04-20 13:58 | 36.69937 | -76.48703 | 41269 ft | 561 kts | 25° |
| 2026-04-20 13:58 | 36.76647 | -76.43705 | 41265 ft | 563 kts | 25° |
| 2026-04-20 13:59 | 36.83368 | -76.38686 | 41270 ft | 563 kts | 25° |
| 2026-04-20 13:59 | 36.90091 | -76.33656 | 41298 ft | 563 kts | 25° |
| 2026-04-20 14:00 | 36.96768 | -76.28652 | 41281 ft | 563 kts | 26° |
| 2026-04-20 14:00 | 37.03483 | -76.23606 | 41287 ft | 563 kts | 26° |
| 2026-04-20 14:01 | 37.10207 | -76.18547 | 41237 ft | 564 kts | 26° |
| 2026-04-20 14:01 | 37.16931 | -76.13472 | 41221 ft | 564 kts | 26° |
| 2026-04-20 14:02 | 37.23608 | -76.08427 | 41243 ft | 564 kts | 26° |
| 2026-04-20 14:02 | 37.30336 | -76.03328 | 41260 ft | 565 kts | 26° |
| 2026-04-20 14:03 | 37.37067 | -75.98221 | 41276 ft | 566 kts | 26° |
| 2026-04-20 14:03 | 37.43787 | -75.93105 | 41245 ft | 563 kts | 26° |
| 2026-04-20 14:04 | 37.50495 | -75.87995 | 41231 ft | 564 kts | 26° |
| 2026-04-20 14:04 | 37.57173 | -75.82920 | 41229 ft | 564 kts | 26° |
| 2026-04-20 14:05 | 37.63937 | -75.77911 | 41224 ft | 564 kts | 26° |
| 2026-04-20 14:05 | 37.70688 | -75.72808 | 41228 ft | 567 kts | 26° |
| 2026-04-20 14:06 | 37.77473 | -75.67727 | 41248 ft | 567 kts | 26° |
| 2026-04-20 14:06 | 37.84187 | -75.62636 | 41214 ft | 566 kts | 28° |
| 2026-04-20 14:07 | 37.90702 | -75.56980 | 41217 ft | 568 kts | 30° |
| 2026-04-20 14:07 | 37.97230 | -75.51323 | 41233 ft | 569 kts | 30° |
| 2026-04-20 14:08 | 38.03751 | -75.45616 | 41215 ft | 569 kts | 30° |
| 2026-04-20 14:08 | 38.10105 | -75.39743 | 41216 ft | 569 kts | 32° |
| 2026-04-20 14:09 | 38.16499 | -75.33730 | 41224 ft | 573 kts | 32° |
| 2026-04-20 14:09 | 38.22892 | -75.27705 | 41211 ft | 572 kts | 32° |
| 2026-04-20 14:10 | 38.29273 | -75.21694 | 41209 ft | 571 kts | 32° |
| 2026-04-20 14:10 | 38.35657 | -75.15683 | 41210 ft | 571 kts | 32° |
| 2026-04-20 14:11 | 38.42009 | -75.09709 | 41216 ft | 572 kts | 32° |
| 2026-04-20 14:11 | 38.48421 | -75.03701 | 41211 ft | 571 kts | 32° |
| 2026-04-20 14:12 | 38.54836 | -74.97700 | 41228 ft | 572 kts | 32° |
| 2026-04-20 14:12 | 38.61262 | -74.91692 | 41245 ft | 573 kts | 32° |
| 2026-04-20 14:13 | 38.67657 | -74.85725 | 41238 ft | 573 kts | 32° |
| 2026-04-20 14:13 | 38.74098 | -74.79719 | 41237 ft | 573 kts | 32° |
| 2026-04-20 14:14 | 38.80482 | -74.73608 | 41270 ft | 574 kts | 35° |
| 2026-04-20 14:14 | 38.86642 | -74.67033 | 41241 ft | 576 kts | 37° |
| 2026-04-20 14:15 | 38.92667 | -74.60339 | 41241 ft | 577 kts | 38° |
| 2026-04-20 14:15 | 38.98713 | -74.53560 | 41244 ft | 577 kts | 38° |
| 2026-04-20 14:16 | 39.04766 | -74.46771 | 41236 ft | 578 kts | 38° |
| 2026-04-20 14:16 | 39.10830 | -74.39984 | 41232 ft | 578 kts | 38° |
| 2026-04-20 14:17 | 39.16896 | -74.33200 | 41227 ft | 578 kts | 38° |
| 2026-04-20 14:17 | 39.22942 | -74.26445 | 41231 ft | 580 kts | 38° |
| 2026-04-20 14:18 | 39.29049 | -74.19645 | 41243 ft | 580 kts | 38° |
| 2026-04-20 14:18 | 39.35157 | -74.12851 | 41242 ft | 579 kts | 38° |
| 2026-04-20 14:19 | 39.41275 | -74.06058 | 41236 ft | 580 kts | 38° |
| 2026-04-20 14:19 | 39.47362 | -73.99321 | 41225 ft | 580 kts | 38° |
| 2026-04-20 14:20 | 39.53494 | -73.92537 | 41236 ft | 580 kts | 38° |
| 2026-04-20 14:20 | 39.59639 | -73.85740 | 41238 ft | 581 kts | 38° |
| 2026-04-20 14:21 | 39.65790 | -73.78938 | 41240 ft | 581 kts | 38° |
| 2026-04-20 14:21 | 39.71938 | -73.72142 | 41240 ft | 580 kts | 37° |
| 2026-04-20 14:22 | 39.78054 | -73.65390 | 41233 ft | 581 kts | 37° |
| 2026-04-20 14:22 | 39.84229 | -73.58600 | 41236 ft | 582 kts | 37° |
| 2026-04-20 14:23 | 39.90416 | -73.51778 | 41236 ft | 583 kts | 38° |
| 2026-04-20 14:23 | 39.96456 | -73.44696 | 41231 ft | 585 kts | 40° |
| 2026-04-20 14:24 | 40.02383 | -73.37435 | 41239 ft | 584 kts | 41° |
| 2026-04-20 14:24 | 40.08240 | -73.30186 | 41233 ft | 584 kts | 41° |
| 2026-04-20 14:25 | 40.14140 | -73.22870 | 41230 ft | 586 kts | 41° |
| 2026-04-20 14:25 | 40.20061 | -73.15540 | 41235 ft | 586 kts | 41° |
| 2026-04-20 14:26 | 40.25987 | -73.08211 | 41233 ft | 586 kts | 41° |
| 2026-04-20 14:26 | 40.31874 | -73.00934 | 41228 ft | 586 kts | 41° |
| 2026-04-20 14:27 | 40.37811 | -72.93609 | 41214 ft | 586 kts | 41° |
| 2026-04-20 14:27 | 40.43758 | -72.86288 | 41225 ft | 587 kts | 41° |
| 2026-04-20 14:28 | 40.49719 | -72.78957 | 41234 ft | 588 kts | 41° |
| 2026-04-20 14:28 | 40.55646 | -72.71679 | 41224 ft | 586 kts | 41° |
| 2026-04-20 14:29 | 40.61610 | -72.64364 | 41226 ft | 586 kts | 41° |
| 2026-04-20 14:29 | 40.67582 | -72.57045 | 41238 ft | 587 kts | 41° |
| 2026-04-20 14:30 | 40.73374 | -72.49469 | 41191 ft | 589 kts | 53° |
| 2026-04-20 14:30 | 40.75493 | -72.44879 | 41245 ft | 587 kts | 64° |
| 2026-04-20 14:30 | 40.77120 | -72.39929 | 41245 ft | 588 kts | 71° |
| 2026-04-20 14:31 | 40.79629 | -72.29786 | 41567 ft | 581 kts | 75° |
| 2026-04-20 14:31 | 40.80750 | -72.24662 | 41777 ft | 581 kts | 76° |
| 2026-04-20 14:31 | 40.81842 | -72.19527 | 42046 ft | 581 kts | 76° |
| 2026-04-20 14:32 | 40.82924 | -72.14384 | 42299 ft | 582 kts | 76° |
| 2026-04-20 14:32 | 40.84000 | -72.09238 | 42538 ft | 581 kts | 76° |
| 2026-04-20 14:32 | 40.85073 | -72.04104 | 42780 ft | 579 kts | 76° |
| 2026-04-20 14:32 | 40.86141 | -71.98986 | 43018 ft | 578 kts | 76° |
| 2026-04-20 14:33 | 40.87210 | -71.93867 | 43257 ft | 577 kts | 76° |
| 2026-04-20 14:33 | 40.88262 | -71.88826 | 43476 ft | 577 kts | 76° |
| 2026-04-20 14:33 | 40.89327 | -71.83727 | 43727 ft | 576 kts | 76° |
| 2026-04-20 14:33 | 40.90391 | -71.78630 | 43967 ft | 574 kts | 76° |
| 2026-04-20 14:34 | 40.91453 | -71.73549 | 44228 ft | 573 kts | 76° |
| 2026-04-20 14:34 | 40.92511 | -71.68486 | 44482 ft | 571 kts | 76° |
| 2026-04-20 14:34 | 40.93567 | -71.63432 | 44765 ft | 569 kts | 76° |
| 2026-04-20 14:34 | 40.94620 | -71.58396 | 45014 ft | 567 kts | 76° |
| 2026-04-20 14:35 | 40.95670 | -71.53385 | 45212 ft | 565 kts | 76° |
| 2026-04-20 14:35 | 40.96722 | -71.48370 | 45204 ft | 568 kts | 76° |
| 2026-04-20 14:35 | 40.98828 | -71.38335 | 45229 ft | 572 kts | 76° |
| 2026-04-20 14:36 | 41.00968 | -71.28151 | 45233 ft | 577 kts | 76° |
| 2026-04-20 14:36 | 41.03194 | -71.17894 | 45211 ft | 583 kts | 70° |
| 2026-04-20 14:37 | 41.04983 | -71.13069 | 45268 ft | 585 kts | 59° |
| 2026-04-20 14:37 | 41.07232 | -71.08569 | 45237 ft | 587 kts | 54° |
| 2026-04-20 14:37 | 41.12166 | -71.00125 | 45224 ft | 580 kts | 50° |
| 2026-04-20 14:38 | 41.17325 | -70.91868 | 45219 ft | 582 kts | 49° |
| 2026-04-20 14:38 | 41.22548 | -70.83650 | 45215 ft | 582 kts | 49° |
| 2026-04-20 14:39 | 41.27787 | -70.75451 | 45205 ft | 582 kts | 49° |
| 2026-04-20 14:39 | 41.33007 | -70.67293 | 45206 ft | 583 kts | 49° |
| 2026-04-20 14:40 | 41.38265 | -70.59080 | 45198 ft | 583 kts | 49° |
| 2026-04-20 14:40 | 41.43522 | -70.50889 | 45205 ft | 581 kts | 49° |
| 2026-04-20 14:41 | 41.48786 | -70.42704 | 45202 ft | 583 kts | 49° |
| 2026-04-20 14:41 | 41.54034 | -70.34547 | 45198 ft | 583 kts | 49° |
| 2026-04-20 14:42 | 41.59314 | -70.26354 | 45179 ft | 581 kts | 49° |
| 2026-04-20 14:42 | 41.64590 | -70.18171 | 45171 ft | 581 kts | 49° |
| 2026-04-20 14:43 | 41.69888 | -70.09995 | 45203 ft | 582 kts | 49° |
| 2026-04-20 14:43 | 41.75196 | -70.01828 | 45199 ft | 581 kts | 49° |
| 2026-04-20 14:44 | 41.80330 | -69.93566 | 45197 ft | 581 kts | 50° |
| 2026-04-20 14:44 | 41.85564 | -69.85323 | 45164 ft | 582 kts | 50° |
| 2026-04-20 14:45 | 41.90758 | -69.77004 | 45201 ft | 581 kts | 50° |
| 2026-04-20 14:45 | 41.95966 | -69.68707 | 45215 ft | 581 kts | 50° |
| 2026-04-20 14:46 | 42.01157 | -69.60375 | 45212 ft | 582 kts | 50° |
| 2026-04-20 14:46 | 42.06313 | -69.52099 | 45188 ft | 581 kts | 50° |
| 2026-04-20 14:47 | 42.11494 | -69.43745 | 45210 ft | 582 kts | 51° |
| 2026-04-20 14:48 | 42.19278 | -69.31163 | 45210 ft | 582 kts | 51° |
| 2026-04-20 14:48 | 42.24412 | -69.22829 | 45204 ft | 581 kts | 51° |
| 2026-04-20 14:49 | 42.29581 | -69.14420 | 45228 ft | 582 kts | 51° |
| 2026-04-20 14:49 | 42.34753 | -69.05978 | 45203 ft | 583 kts | 51° |
| 2026-04-20 14:50 | 42.39917 | -68.97527 | 45199 ft | 582 kts | 51° |
| 2026-04-20 14:50 | 42.45069 | -68.89072 | 45210 ft | 583 kts | 51° |
| 2026-04-20 14:51 | 42.50184 | -68.80654 | 45198 ft | 582 kts | 52° |
| 2026-04-20 14:51 | 42.55332 | -68.72158 | 45192 ft | 583 kts | 52° |
| 2026-04-20 14:52 | 42.60474 | -68.63646 | 45197 ft | 583 kts | 52° |
| 2026-04-20 14:52 | 42.65608 | -68.55122 | 45192 ft | 583 kts | 52° |
| 2026-04-20 14:53 | 42.70698 | -68.46648 | 45191 ft | 583 kts | 52° |
| 2026-04-20 14:53 | 42.75817 | -68.38101 | 45192 ft | 583 kts | 52° |
| 2026-04-20 14:54 | 42.80930 | -68.29541 | 45184 ft | 583 kts | 52° |
| 2026-04-20 14:54 | 42.86039 | -68.20961 | 45189 ft | 583 kts | 52° |
| 2026-04-20 14:55 | 42.91134 | -68.12377 | 45183 ft | 582 kts | 52° |
| 2026-04-20 14:55 | 42.96184 | -68.03848 | 45176 ft | 581 kts | 52° |
| 2026-04-20 14:56 | 43.01264 | -67.95243 | 45177 ft | 582 kts | 53° |
| 2026-04-20 14:56 | 43.06338 | -67.86622 | 45173 ft | 582 kts | 53° |
| 2026-04-20 14:57 | 43.11407 | -67.77984 | 45175 ft | 582 kts | 53° |
| 2026-04-20 14:57 | 43.16439 | -67.69385 | 45179 ft | 582 kts | 53° |
| 2026-04-20 14:58 | 43.21503 | -67.60703 | 45176 ft | 584 kts | 53° |
| 2026-04-20 14:58 | 43.26568 | -67.51998 | 45183 ft | 584 kts | 53° |
| 2026-04-20 14:59 | 43.31621 | -67.43286 | 45167 ft | 584 kts | 53° |
| 2026-04-20 14:59 | 43.36685 | -67.34525 | 45169 ft | 587 kts | 53° |
| 2026-04-20 15:00 | 43.41717 | -67.25800 | 45172 ft | 585 kts | 53° |
| 2026-04-20 15:00 | 43.46763 | -67.17021 | 45153 ft | 584 kts | 53° |
| 2026-04-20 15:01 | 43.51815 | -67.08203 | 45173 ft | 588 kts | 53° |
| 2026-04-20 15:01 | 43.57021 | -66.99518 | 45140 ft | 588 kts | 45° |
| 2026-04-20 15:02 | 43.63086 | -66.92075 | 45159 ft | 589 kts | 41° |
| 2026-04-20 15:02 | 43.69270 | -66.84609 | 45156 ft | 590 kts | 41° |
| 2026-04-20 15:03 | 43.75436 | -66.77146 | 45152 ft | 589 kts | 41° |
| 2026-04-20 15:03 | 43.81592 | -66.69669 | 45148 ft | 589 kts | 41° |
| 2026-04-20 15:04 | 43.87742 | -66.62182 | 45149 ft | 589 kts | 41° |
| 2026-04-20 15:04 | 43.93848 | -66.54725 | 45138 ft | 589 kts | 41° |
| 2026-04-20 15:05 | 43.99984 | -66.47211 | 45082 ft | 588 kts | 42° |
| 2026-04-20 15:05 | 44.06082 | -66.39723 | 45113 ft | 583 kts | 42° |
| 2026-04-20 15:06 | 44.12141 | -66.32258 | 45099 ft | 582 kts | 42° |
| 2026-04-20 15:06 | 44.18167 | -66.24815 | 45094 ft | 583 kts | 42° |
| 2026-04-20 15:07 | 44.24227 | -66.17308 | 45101 ft | 582 kts | 42° |
| 2026-04-20 15:07 | 44.30276 | -66.09795 | 45093 ft | 582 kts | 42° |
| 2026-04-20 15:08 | 44.36325 | -66.02258 | 45094 ft | 583 kts | 42° |
| 2026-04-20 15:08 | 44.42327 | -65.94760 | 45096 ft | 582 kts | 43° |
| 2026-04-20 15:09 | 44.48351 | -65.87210 | 45087 ft | 581 kts | 43° |
| 2026-04-20 15:09 | 44.54377 | -65.79639 | 45096 ft | 582 kts | 43° |
| 2026-04-20 15:10 | 44.60398 | -65.72050 | 45106 ft | 582 kts | 43° |
| 2026-04-20 15:10 | 44.66375 | -65.64497 | 45109 ft | 581 kts | 43° |
| 2026-04-20 15:11 | 44.72379 | -65.56884 | 45100 ft | 582 kts | 43° |
| 2026-04-20 15:11 | 44.78395 | -65.49236 | 45101 ft | 584 kts | 43° |
| 2026-04-20 15:12 | 44.84411 | -65.41565 | 45098 ft | 583 kts | 43° |
| 2026-04-20 15:12 | 44.90412 | -65.33890 | 45091 ft | 583 kts | 44° |
| 2026-04-20 15:13 | 44.96384 | -65.26235 | 45095 ft | 585 kts | 44° |
| 2026-04-20 15:13 | 45.02396 | -65.18501 | 45083 ft | 584 kts | 44° |
| 2026-04-20 15:14 | 45.08394 | -65.10757 | 45074 ft | 584 kts | 44° |
| 2026-04-20 15:14 | 45.14392 | -65.02996 | 45025 ft | 584 kts | 44° |
| 2026-04-20 15:15 | 45.20352 | -64.95259 | 45061 ft | 587 kts | 44° |
| 2026-04-20 15:15 | 45.26369 | -64.87430 | 45061 ft | 586 kts | 44° |
| 2026-04-20 15:16 | 45.32359 | -64.79606 | 45047 ft | 585 kts | 44° |
| 2026-04-20 15:16 | 45.38350 | -64.71759 | 45044 ft | 586 kts | 44° |
| 2026-04-20 15:17 | 45.44335 | -64.63899 | 45034 ft | 585 kts | 44° |
| 2026-04-20 15:17 | 45.50263 | -64.56087 | 45019 ft | 585 kts | 44° |
| 2026-04-20 15:18 | 45.56231 | -64.48200 | 45021 ft | 585 kts | 44° |
| 2026-04-20 15:18 | 45.62192 | -64.40299 | 45012 ft | 584 kts | 44° |
| 2026-04-20 15:19 | 45.68141 | -64.32388 | 45014 ft | 584 kts | 44° |
| 2026-04-20 15:19 | 45.74081 | -64.24467 | 45008 ft | 584 kts | 44° |
| 2026-04-20 15:20 | 45.79971 | -64.16587 | 45007 ft | 583 kts | 44° |
| 2026-04-20 15:20 | 45.85895 | -64.08639 | 45006 ft | 583 kts | 44° |
| 2026-04-20 15:21 | 45.91814 | -64.00671 | 45007 ft | 583 kts | 45° |
| 2026-04-20 15:21 | 45.97731 | -63.92684 | 45008 ft | 583 kts | 45° |
| 2026-04-20 15:22 | 46.03596 | -63.84740 | 45005 ft | 583 kts | 45° |
| 2026-04-20 15:22 | 46.09494 | -63.76729 | 45010 ft | 583 kts | 45° |
| 2026-04-20 15:23 | 46.15396 | -63.68688 | 45009 ft | 584 kts | 45° |
| 2026-04-20 15:23 | 46.21289 | -63.60633 | 45008 ft | 584 kts | 45° |
| 2026-04-20 15:24 | 46.27147 | -63.52600 | 45011 ft | 585 kts | 45° |
| 2026-04-20 15:24 | 46.33040 | -63.44496 | 45001 ft | 584 kts | 45° |
| 2026-04-20 15:25 | 46.38931 | -63.36369 | 45009 ft | 586 kts | 45° |
| 2026-04-20 15:25 | 46.44827 | -63.28208 | 45016 ft | 586 kts | 45° |
| 2026-04-20 15:26 | 46.50668 | -63.20101 | 45007 ft | 585 kts | 45° |
| 2026-04-20 15:26 | 46.56543 | -63.11916 | 45012 ft | 586 kts | 45° |
| 2026-04-20 15:27 | 46.62419 | -63.03707 | 45014 ft | 586 kts | 45° |
| 2026-04-20 15:27 | 46.68283 | -62.95489 | 45012 ft | 585 kts | 45° |
| 2026-04-20 15:28 | 46.74137 | -62.87259 | 45013 ft | 585 kts | 45° |
| 2026-04-20 15:28 | 46.79943 | -62.79069 | 45009 ft | 584 kts | 45° |
| 2026-04-20 15:29 | 46.85779 | -62.70811 | 45007 ft | 584 kts | 45° |
| 2026-04-20 15:29 | 46.91612 | -62.62530 | 45009 ft | 584 kts | 46° |
| 2026-04-20 15:30 | 46.97434 | -62.54240 | 45001 ft | 584 kts | 46° |
| 2026-04-20 15:30 | 47.03210 | -62.45989 | 45005 ft | 584 kts | 46° |
| 2026-04-20 15:31 | 47.09022 | -62.37661 | 45005 ft | 584 kts | 46° |
| 2026-04-20 15:31 | 47.14829 | -62.29311 | 44999 ft | 584 kts | 46° |
| 2026-04-20 15:32 | 47.20625 | -62.20949 | 44998 ft | 584 kts | 46° |
| 2026-04-20 15:32 | 47.26372 | -62.12632 | 44995 ft | 583 kts | 46° |
| 2026-04-20 15:33 | 47.32145 | -62.04253 | 44985 ft | 583 kts | 46° |
| 2026-04-20 15:33 | 47.37920 | -61.95841 | 44972 ft | 583 kts | 46° |
| 2026-04-20 15:34 | 47.43685 | -61.87416 | 44960 ft | 583 kts | 46° |
| 2026-04-20 15:34 | 47.49409 | -61.79025 | 44958 ft | 583 kts | 46° |
| 2026-04-20 15:35 | 47.55158 | -61.70568 | 44964 ft | 583 kts | 46° |
| 2026-04-20 15:35 | 47.60917 | -61.62071 | 44966 ft | 585 kts | 46° |
| 2026-04-20 15:36 | 47.66670 | -61.53553 | 44965 ft | 584 kts | 46° |
| 2026-04-20 15:36 | 47.72405 | -61.45035 | 44956 ft | 583 kts | 46° |
| 2026-04-20 15:37 | 47.78138 | -61.36491 | 44951 ft | 584 kts | 46° |
| 2026-04-20 15:37 | 47.83828 | -61.27983 | 44950 ft | 584 kts | 46° |
| 2026-04-20 15:38 | 47.89548 | -61.19401 | 44942 ft | 583 kts | 46° |
| 2026-04-20 15:38 | 47.95252 | -61.10814 | 44939 ft | 583 kts | 46° |
| 2026-04-20 15:39 | 48.00954 | -61.02204 | 44937 ft | 583 kts | 46° |
| 2026-04-20 15:39 | 48.06612 | -60.93631 | 44934 ft | 583 kts | 46° |
| 2026-04-20 15:40 | 48.12287 | -60.85003 | 44923 ft | 581 kts | 46° |
| 2026-04-20 15:40 | 48.17953 | -60.76358 | 44915 ft | 582 kts | 46° |
| 2026-04-20 15:41 | 48.23617 | -60.67690 | 44917 ft | 580 kts | 46° |
| 2026-04-20 15:41 | 48.29208 | -60.59104 | 44907 ft | 578 kts | 46° |
| 2026-04-20 15:42 | 48.34832 | -60.50438 | 44903 ft | 580 kts | 46° |
| 2026-04-20 15:42 | 48.40454 | -60.41746 | 44899 ft | 578 kts | 46° |
| 2026-04-20 15:43 | 48.46037 | -60.33084 | 44883 ft | 575 kts | 46° |
| 2026-04-20 15:43 | 48.51573 | -60.24470 | 44884 ft | 577 kts | 46° |
| 2026-04-20 15:44 | 48.57143 | -60.15772 | 44895 ft | 575 kts | 46° |
| 2026-04-20 15:44 | 48.62673 | -60.07103 | 44879 ft | 572 kts | 46° |
| 2026-04-20 15:45 | 48.68197 | -59.98419 | 44875 ft | 574 kts | 47° |
| 2026-04-20 15:45 | 48.73718 | -59.89710 | 44863 ft | 571 kts | 47° |
| 2026-04-20 15:46 | 48.79140 | -59.81130 | 44859 ft | 565 kts | 47° |
| 2026-04-20 15:46 | 48.84572 | -59.72499 | 44865 ft | 567 kts | 47° |
| 2026-04-20 15:47 | 48.90013 | -59.63830 | 44857 ft | 566 kts | 47° |
| 2026-04-20 15:47 | 48.95438 | -59.55156 | 44853 ft | 565 kts | 47° |
| 2026-04-20 15:48 | 49.00814 | -59.46531 | 44844 ft | 566 kts | 47° |
| 2026-04-20 15:48 | 49.06230 | -59.37813 | 44841 ft | 566 kts | 47° |
| 2026-04-20 15:49 | 49.11639 | -59.29075 | 44839 ft | 567 kts | 47° |
| 2026-04-20 15:49 | 49.17049 | -59.20307 | 44835 ft | 567 kts | 47° |
| 2026-04-20 15:50 | 49.22418 | -59.11576 | 44833 ft | 567 kts | 47° |
| 2026-04-20 15:50 | 49.27814 | -59.02772 | 44826 ft | 567 kts | 48° |
| 2026-04-20 15:51 | 49.33199 | -58.93954 | 44827 ft | 566 kts | 48° |
| 2026-04-20 15:51 | 49.38576 | -58.85121 | 44826 ft | 567 kts | 48° |
| 2026-04-20 15:52 | 49.43944 | -58.76270 | 44828 ft | 565 kts | 47° |
| 2026-04-20 15:52 | 49.49283 | -58.67435 | 44806 ft | 564 kts | 47° |
| 2026-04-20 15:53 | 49.57262 | -58.54179 | 44804 ft | 565 kts | 48° |
| 2026-04-20 15:53 | 49.62578 | -58.45308 | 44792 ft | 561 kts | 48° |
| 2026-04-20 15:54 | 49.67856 | -58.36471 | 44778 ft | 560 kts | 48° |
| 2026-04-20 15:54 | 49.73135 | -58.27600 | 44780 ft | 561 kts | 48° |
| 2026-04-20 15:55 | 49.78368 | -58.18778 | 44787 ft | 558 kts | 48° |
| 2026-04-20 15:55 | 49.83594 | -58.09935 | 44774 ft | 556 kts | 49° |
| 2026-04-20 15:56 | 49.88810 | -58.01080 | 44791 ft | 557 kts | 49° |
| 2026-04-20 15:56 | 49.94030 | -57.92188 | 44787 ft | 556 kts | 49° |
| 2026-04-20 15:57 | 49.99169 | -57.83401 | 44787 ft | 551 kts | 49° |
| 2026-04-20 15:57 | 50.04308 | -57.74586 | 44766 ft | 551 kts | 49° |
| 2026-04-20 15:58 | 50.09450 | -57.65736 | 44766 ft | 551 kts | 49° |
| 2026-04-20 15:58 | 50.14581 | -57.56875 | 44768 ft | 549 kts | 49° |
| 2026-04-20 15:59 | 50.19691 | -57.48018 | 44755 ft | 550 kts | 49° |
| 2026-04-20 15:59 | 50.24768 | -57.39186 | 44742 ft | 550 kts | 50° |
| 2026-04-20 16:00 | 50.29871 | -57.30280 | 44755 ft | 550 kts | 50° |
| 2026-04-20 16:00 | 50.34969 | -57.21353 | 44742 ft | 550 kts | 50° |
| 2026-04-20 16:01 | 50.40064 | -57.12400 | 44748 ft | 550 kts | 50° |
| 2026-04-20 16:01 | 50.45145 | -57.03437 | 44740 ft | 550 kts | 50° |
| 2026-04-20 16:02 | 50.50180 | -56.94527 | 44734 ft | 549 kts | 50° |
| 2026-04-20 16:02 | 50.55234 | -56.85550 | 44730 ft | 549 kts | 50° |
| 2026-04-20 16:03 | 50.60286 | -56.76548 | 44734 ft | 549 kts | 50° |
| 2026-04-20 16:03 | 50.65335 | -56.67517 | 44737 ft | 549 kts | 50° |
| 2026-04-20 16:04 | 50.70343 | -56.58528 | 44742 ft | 549 kts | 50° |
| 2026-04-20 16:04 | 50.75381 | -56.49454 | 44749 ft | 549 kts | 50° |
| 2026-04-20 16:05 | 50.80410 | -56.40364 | 44758 ft | 549 kts | 50° |
| 2026-04-20 16:05 | 50.85413 | -56.31289 | 44748 ft | 546 kts | 50° |
| 2026-04-20 16:06 | 50.90370 | -56.22261 | 44752 ft | 547 kts | 50° |
| 2026-04-20 16:06 | 50.95362 | -56.13146 | 44866 ft | 545 kts | 50° |
| 2026-04-20 16:07 | 50.97831 | -56.08623 | 45123 ft | 541 kts | 50° |
| 2026-04-20 16:07 | 51.00289 | -56.04110 | 45353 ft | 539 kts | 50° |
| 2026-04-20 16:07 | 51.02734 | -55.99616 | 45586 ft | 537 kts | 50° |
| 2026-04-20 16:07 | 51.05167 | -55.95137 | 45821 ft | 534 kts | 51° |
| 2026-04-20 16:08 | 51.07588 | -55.90671 | 45995 ft | 533 kts | 51° |
| 2026-04-20 16:08 | 51.09968 | -55.86272 | 46175 ft | 531 kts | 51° |
| 2026-04-20 16:08 | 51.12371 | -55.81823 | 46299 ft | 530 kts | 51° |
| 2026-04-20 16:08 | 51.14768 | -55.77376 | 46412 ft | 529 kts | 51° |
| 2026-04-20 16:09 | 51.17154 | -55.72926 | 46533 ft | 528 kts | 51° |
| 2026-04-20 16:09 | 51.19544 | -55.68487 | 46643 ft | 527 kts | 50° |
| 2026-04-20 16:09 | 51.21928 | -55.64063 | 46749 ft | 525 kts | 50° |
| 2026-04-20 16:09 | 51.24295 | -55.59639 | 46869 ft | 524 kts | 51° |
| 2026-04-20 16:10 | 51.26655 | -55.55215 | 46986 ft | 522 kts | 51° |
| 2026-04-20 16:10 | 51.29009 | -55.50809 | 47098 ft | 521 kts | 51° |
| 2026-04-20 16:10 | 51.31321 | -55.46472 | 47210 ft | 519 kts | 51° |
| 2026-04-20 16:10 | 51.33652 | -55.42087 | 47321 ft | 517 kts | 51° |
| 2026-04-20 16:11 | 51.35974 | -55.37713 | 47430 ft | 515 kts | 51° |
| 2026-04-20 16:11 | 51.38286 | -55.33351 | 47538 ft | 512 kts | 51° |
| 2026-04-20 16:11 | 51.40583 | -55.29011 | 47645 ft | 510 kts | 51° |
| 2026-04-20 16:11 | 51.42870 | -55.24680 | 47713 ft | 508 kts | 51° |
| 2026-04-20 16:12 | 51.47419 | -55.16045 | 47824 ft | 505 kts | 51° |
| 2026-04-20 16:12 | 51.51926 | -55.07463 | 47960 ft | 501 kts | 51° |
| 2026-04-20 16:13 | 51.56358 | -54.98994 | 48084 ft | 496 kts | 51° |
| 2026-04-20 16:13 | 51.60774 | -54.90530 | 48200 ft | 491 kts | 51° |
| 2026-04-20 16:14 | 51.65134 | -54.82142 | 48311 ft | 486 kts | 51° |
| 2026-04-20 16:14 | 51.69434 | -54.73844 | 48444 ft | 479 kts | 51° |
| 2026-04-20 16:15 | 51.73644 | -54.65694 | 48547 ft | 472 kts | 51° |
| 2026-04-20 16:15 | 51.77800 | -54.57599 | 48640 ft | 464 kts | 54° |
| 2026-04-20 16:16 | 51.80812 | -54.48659 | 48698 ft | 446 kts | 74° |
| 2026-04-20 16:16 | 51.82532 | -54.39222 | 48784 ft | 431 kts | 76° |
| 2026-04-20 16:17 | 51.84171 | -54.30067 | 48776 ft | 416 kts | 77° |
| 2026-04-20 16:17 | 51.85725 | -54.21273 | 48551 ft | 407 kts | 77° |
| 2026-04-20 16:18 | 51.86505 | -54.16874 | 48255 ft | 406 kts | 76° |
| 2026-04-20 16:18 | 51.87278 | -54.12490 | 47999 ft | 405 kts | 77° |
| 2026-04-20 16:18 | 51.88047 | -54.08117 | 47724 ft | 403 kts | 76° |
| 2026-04-20 16:18 | 51.88811 | -54.03760 | 47470 ft | 402 kts | 77° |
| 2026-04-20 16:19 | 51.89573 | -53.99403 | 47192 ft | 403 kts | 76° |
| 2026-04-20 16:19 | 51.90338 | -53.95021 | 46840 ft | 406 kts | 76° |
| 2026-04-20 16:19 | 51.91107 | -53.90602 | 46515 ft | 409 kts | 76° |
| 2026-04-20 16:19 | 51.91884 | -53.86142 | 46181 ft | 414 kts | 77° |
| 2026-04-20 16:20 | 51.92658 | -53.81695 | 45864 ft | 418 kts | 76° |
| 2026-04-20 16:20 | 51.93444 | -53.77128 | 45547 ft | 424 kts | 77° |
| 2026-04-20 16:20 | 51.94240 | -53.72491 | 45242 ft | 430 kts | 76° |
| 2026-04-20 16:20 | 51.95050 | -53.67787 | 44934 ft | 437 kts | 77° |
| 2026-04-20 16:21 | 51.96682 | -53.58273 | 44845 ft | 438 kts | 76° |
| 2026-04-20 16:21 | 51.98303 | -53.48749 | 44846 ft | 438 kts | 76° |
| 2026-04-20 16:22 | 51.99903 | -53.39290 | 44849 ft | 437 kts | 77° |
| 2026-04-20 16:22 | 52.01509 | -53.29771 | 44823 ft | 438 kts | 76° |
| 2026-04-20 16:23 | 52.02323 | -53.24927 | 44308 ft | 452 kts | 77° |
| 2026-04-20 16:23 | 52.03155 | -53.19930 | 43809 ft | 465 kts | 76° |
| 2026-04-20 16:23 | 52.04014 | -53.14784 | 43349 ft | 479 kts | 76° |
| 2026-04-20 16:23 | 52.04892 | -53.09516 | 43177 ft | 487 kts | 77° |
| 2026-04-20 16:24 | 52.05783 | -53.04147 | 42976 ft | 497 kts | 77° |
| 2026-04-20 16:24 | 52.06685 | -52.98686 | 42912 ft | 503 kts | 77° |
| 2026-04-20 16:24 | 52.07578 | -52.93258 | 43078 ft | 505 kts | 76° |
| 2026-04-20 16:24 | 52.08487 | -52.87734 | 43243 ft | 507 kts | 77° |
| 2026-04-20 16:25 | 52.09396 | -52.82184 | 43394 ft | 509 kts | 77° |
| 2026-04-20 16:25 | 52.10302 | -52.76622 | 43611 ft | 509 kts | 76° |
| 2026-04-20 16:25 | 52.11208 | -52.71051 | 43838 ft | 509 kts | 77° |
| 2026-04-20 16:25 | 52.11806 | -52.67367 | 43985 ft | 510 kts | 77° |
| 2026-04-20 16:26 | 52.12708 | -52.61789 | 44223 ft | 509 kts | 77° |
| 2026-04-20 16:26 | 52.13606 | -52.56213 | 44444 ft | 509 kts | 77° |
| 2026-04-20 16:26 | 52.14502 | -52.50635 | 44638 ft | 509 kts | 77° |
| 2026-04-20 16:26 | 52.15683 | -52.43259 | 44890 ft | 509 kts | 77° |
| 2026-04-20 16:27 | 52.17470 | -52.32022 | 44887 ft | 516 kts | 77° |
| 2026-04-20 16:27 | 52.19271 | -52.20624 | 44902 ft | 523 kts | 77° |
| 2026-04-20 16:28 | 52.20776 | -52.11046 | 44891 ft | 525 kts | 77° |
| 2026-04-20 16:28 | 52.22572 | -51.99531 | 44899 ft | 524 kts | 77° |
| 2026-04-20 16:29 | 52.24649 | -51.86119 | 44914 ft | 524 kts | 77° |
| 2026-04-20 16:29 | 52.26135 | -51.76449 | 44915 ft | 525 kts | 78° |
| 2026-04-20 16:30 | 52.27888 | -51.64972 | 44920 ft | 525 kts | 77° |
| 2026-04-20 16:30 | 52.29641 | -51.53409 | 44921 ft | 525 kts | 77° |
| 2026-04-20 16:31 | 52.31385 | -51.41828 | 44924 ft | 525 kts | 77° |
| 2026-04-20 16:31 | 52.33118 | -51.30232 | 44931 ft | 525 kts | 78° |
| 2026-04-20 16:32 | 52.34829 | -51.18698 | 44931 ft | 525 kts | 77° |
| 2026-04-20 16:32 | 52.36540 | -51.07077 | 44932 ft | 526 kts | 78° |
| 2026-04-20 16:33 | 52.38242 | -50.95435 | 44941 ft | 526 kts | 78° |
| 2026-04-20 16:33 | 52.39933 | -50.83775 | 44940 ft | 526 kts | 78° |
| 2026-04-20 16:34 | 52.41601 | -50.72186 | 44935 ft | 526 kts | 78° |
| 2026-04-20 16:34 | 52.43269 | -50.60516 | 44948 ft | 526 kts | 78° |
| 2026-04-20 16:35 | 52.44925 | -50.48838 | 44949 ft | 526 kts | 78° |
| 2026-04-20 16:35 | 52.46567 | -50.37171 | 44954 ft | 525 kts | 78° |
| 2026-04-20 16:36 | 52.48184 | -50.25585 | 44966 ft | 525 kts | 79° |
| 2026-04-20 16:36 | 52.49804 | -50.13896 | 44967 ft | 525 kts | 78° |
| 2026-04-20 16:37 | 52.51412 | -50.02198 | 44968 ft | 526 kts | 79° |
| 2026-04-20 16:37 | 52.53007 | -49.90494 | 44986 ft | 525 kts | 78° |
| 2026-04-20 16:38 | 52.54574 | -49.78913 | 44981 ft | 522 kts | 79° |
| 2026-04-20 16:38 | 52.56137 | -49.67266 | 44983 ft | 522 kts | 79° |
| 2026-04-20 16:39 | 52.57690 | -49.55607 | 44990 ft | 522 kts | 79° |
| 2026-04-20 16:39 | 52.59231 | -49.43932 | 44995 ft | 522 kts | 79° |
| 2026-04-20 16:40 | 52.60752 | -49.32321 | 45000 ft | 523 kts | 79° |
| 2026-04-20 16:40 | 52.62267 | -49.20652 | 45007 ft | 520 kts | 79° |
| 2026-04-20 16:41 | 52.63770 | -49.08993 | 45005 ft | 521 kts | 78° |
| 2026-04-20 16:41 | 52.65258 | -48.97347 | 45012 ft | 519 kts | 79° |
| 2026-04-20 16:42 | 52.66733 | -48.85705 | 45013 ft | 520 kts | 79° |
| 2026-04-20 16:42 | 52.68188 | -48.74133 | 45025 ft | 519 kts | 80° |
| 2026-04-20 16:43 | 52.69641 | -48.62459 | 45025 ft | 520 kts | 79° |
| 2026-04-20 16:43 | 52.71085 | -48.50771 | 45033 ft | 520 kts | 79° |
| 2026-04-20 16:44 | 52.72517 | -48.39076 | 45033 ft | 520 kts | 80° |
| 2026-04-20 16:44 | 52.73939 | -48.27369 | 45037 ft | 521 kts | 79° |
| 2026-04-20 16:45 | 52.75343 | -48.15733 | 45052 ft | 520 kts | 79° |
| 2026-04-20 16:45 | 52.76734 | -48.04034 | 45046 ft | 519 kts | 79° |
| 2026-04-20 16:46 | 52.78118 | -47.92316 | 45044 ft | 520 kts | 79° |
| 2026-04-20 16:46 | 52.79493 | -47.80592 | 45057 ft | 520 kts | 80° |
| 2026-04-20 16:47 | 52.80832 | -47.68938 | 45063 ft | 520 kts | 80° |
| 2026-04-20 16:47 | 52.82201 | -47.57191 | 45059 ft | 520 kts | 79° |
| 2026-04-20 16:48 | 52.83531 | -47.45469 | 45064 ft | 518 kts | 79° |
| 2026-04-20 16:48 | 52.84857 | -47.33758 | 45066 ft | 518 kts | 79° |
| 2026-04-20 16:49 | 52.86164 | -47.22058 | 45067 ft | 516 kts | 79° |
| 2026-04-20 16:49 | 52.87452 | -47.10443 | 45077 ft | 517 kts | 79° |
| 2026-04-20 16:50 | 52.88737 | -46.98740 | 45079 ft | 517 kts | 79° |
| 2026-04-20 16:50 | 52.90011 | -46.87018 | 45086 ft | 517 kts | 79° |
| 2026-04-20 16:51 | 52.91275 | -46.75290 | 45093 ft | 517 kts | 79° |
| 2026-04-20 16:51 | 52.92517 | -46.63632 | 45096 ft | 517 kts | 79° |
| 2026-04-20 16:52 | 52.93758 | -46.51886 | 45090 ft | 517 kts | 79° |
| 2026-04-20 16:52 | 52.94987 | -46.40132 | 45088 ft | 518 kts | 79° |
| 2026-04-20 16:53 | 52.96207 | -46.28347 | 45097 ft | 520 kts | 79° |
| 2026-04-20 16:53 | 52.97411 | -46.16600 | 45103 ft | 520 kts | 79° |
| 2026-04-20 16:54 | 52.98610 | -46.04780 | 45104 ft | 519 kts | 79° |
| 2026-04-20 16:54 | 52.99796 | -45.92965 | 45105 ft | 519 kts | 79° |
| 2026-04-20 16:55 | 53.00972 | -45.81120 | 45110 ft | 520 kts | 80° |
| 2026-04-20 16:55 | 53.02135 | -45.69287 | 45112 ft | 519 kts | 80° |
| 2026-04-20 16:56 | 53.03169 | -45.58661 | 45110 ft | 519 kts | 80° |
| 2026-04-20 16:56 | 53.04309 | -45.46814 | 45112 ft | 520 kts | 80° |
| 2026-04-20 16:57 | 53.05440 | -45.34953 | 45116 ft | 519 kts | 80° |
| 2026-04-20 16:57 | 53.06557 | -45.23092 | 45115 ft | 519 kts | 80° |
| 2026-04-20 16:58 | 53.07654 | -45.11310 | 45129 ft | 519 kts | 79° |
| 2026-04-20 16:58 | 53.08749 | -44.99447 | 45130 ft | 519 kts | 80° |
| 2026-04-20 16:59 | 53.09828 | -44.87583 | 45112 ft | 519 kts | 80° |
| 2026-04-20 16:59 | 53.10897 | -44.75708 | 45119 ft | 519 kts | 80° |
| 2026-04-20 17:00 | 53.12473 | -44.57958 | 45131 ft | 519 kts | 79° |
| 2026-04-20 17:01 | 53.13514 | -44.46050 | 45127 ft | 520 kts | 79° |
| 2026-04-20 17:01 | 53.14545 | -44.34117 | 45130 ft | 520 kts | 80° |
| 2026-04-20 17:02 | 53.15563 | -44.22198 | 45126 ft | 519 kts | 80° |
| 2026-04-20 17:02 | 53.16570 | -44.10271 | 45127 ft | 520 kts | 80° |
| 2026-04-20 17:03 | 53.17558 | -43.98410 | 45146 ft | 520 kts | 80° |
| 2026-04-20 17:03 | 53.18541 | -43.86461 | 45131 ft | 520 kts | 80° |
| 2026-04-20 17:04 | 53.19510 | -43.74529 | 45129 ft | 519 kts | 80° |
| 2026-04-20 17:04 | 53.20468 | -43.62579 | 45128 ft | 520 kts | 80° |
| 2026-04-20 17:05 | 53.21408 | -43.50694 | 45129 ft | 520 kts | 80° |
| 2026-04-20 17:05 | 53.22343 | -43.38733 | 45134 ft | 520 kts | 80° |
| 2026-04-20 17:06 | 53.23266 | -43.26771 | 45141 ft | 519 kts | 80° |
| 2026-04-20 17:06 | 53.24175 | -43.14819 | 45138 ft | 519 kts | 80° |
| 2026-04-20 17:07 | 53.25066 | -43.02943 | 45136 ft | 519 kts | 80° |
| 2026-04-20 17:07 | 53.25952 | -42.90967 | 45148 ft | 520 kts | 80° |
| 2026-04-20 17:08 | 53.26825 | -42.78999 | 45131 ft | 518 kts | 80° |
| 2026-04-20 17:08 | 53.27683 | -42.67075 | 45135 ft | 516 kts | 80° |
| 2026-04-20 17:09 | 53.28528 | -42.55173 | 45131 ft | 516 kts | 80° |
| 2026-04-20 17:09 | 53.29355 | -42.43343 | 45133 ft | 516 kts | 80° |
| 2026-04-20 17:10 | 53.30176 | -42.31419 | 45134 ft | 516 kts | 80° |
| 2026-04-20 17:10 | 53.30985 | -42.19492 | 45134 ft | 516 kts | 80° |
| 2026-04-20 17:11 | 53.31781 | -42.07574 | 45143 ft | 515 kts | 80° |
| 2026-04-20 17:11 | 53.32559 | -41.95760 | 45138 ft | 514 kts | 80° |
| 2026-04-20 17:12 | 53.33328 | -41.83898 | 45138 ft | 513 kts | 80° |
| 2026-04-20 17:12 | 53.34085 | -41.72032 | 45139 ft | 513 kts | 80° |
| 2026-04-20 17:13 | 53.34830 | -41.60159 | 45140 ft | 513 kts | 80° |
| 2026-04-20 17:13 | 53.35559 | -41.48358 | 45136 ft | 513 kts | 80° |
| 2026-04-20 17:14 | 53.36278 | -41.36518 | 45133 ft | 510 kts | 80° |
| 2026-04-20 17:14 | 53.36984 | -41.24705 | 45127 ft | 511 kts | 81° |
| 2026-04-20 17:15 | 53.37680 | -41.12855 | 45131 ft | 511 kts | 81° |
| 2026-04-20 17:15 | 53.38359 | -41.01101 | 45136 ft | 509 kts | 81° |
| 2026-04-20 17:16 | 53.39028 | -40.89308 | 45137 ft | 508 kts | 81° |
| 2026-04-20 17:16 | 53.39685 | -40.77523 | 45136 ft | 508 kts | 81° |
| 2026-04-20 17:17 | 53.40329 | -40.65751 | 45125 ft | 507 kts | 81° |
| 2026-04-20 17:17 | 53.40958 | -40.54046 | 45124 ft | 508 kts | 81° |
| 2026-04-20 17:18 | 53.41580 | -40.42249 | 45129 ft | 508 kts | 81° |
| 2026-04-20 17:18 | 53.42190 | -40.30458 | 45128 ft | 508 kts | 81° |
| 2026-04-20 17:19 | 53.42789 | -40.18647 | 45128 ft | 509 kts | 81° |
| 2026-04-20 17:19 | 53.43379 | -40.06799 | 45129 ft | 511 kts | 81° |
| 2026-04-20 17:20 | 53.43954 | -39.94988 | 45124 ft | 511 kts | 81° |
| 2026-04-20 17:20 | 53.44521 | -39.83124 | 45120 ft | 510 kts | 81° |
| 2026-04-20 17:21 | 53.45075 | -39.71246 | 45120 ft | 511 kts | 82° |
| 2026-04-20 17:21 | 53.45618 | -39.59353 | 45122 ft | 511 kts | 82° |
| 2026-04-20 17:22 | 53.46147 | -39.47544 | 45114 ft | 511 kts | 82° |
| 2026-04-20 17:22 | 53.46667 | -39.35658 | 45114 ft | 511 kts | 82° |
| 2026-04-20 17:23 | 53.47176 | -39.23754 | 45109 ft | 512 kts | 82° |
| 2026-04-20 17:23 | 53.47673 | -39.11834 | 45113 ft | 512 kts | 82° |
| 2026-04-20 17:24 | 53.48155 | -38.99992 | 45108 ft | 512 kts | 82° |
| 2026-04-20 17:24 | 53.48628 | -38.88077 | 45105 ft | 511 kts | 82° |
| 2026-04-20 17:25 | 53.49089 | -38.76166 | 45107 ft | 512 kts | 82° |
| 2026-04-20 17:25 | 53.49538 | -38.64241 | 45110 ft | 512 kts | 82° |
| 2026-04-20 17:26 | 53.49976 | -38.52306 | 45104 ft | 512 kts | 82° |
| 2026-04-20 17:26 | 53.50400 | -38.40458 | 45108 ft | 512 kts | 82° |
| 2026-04-20 17:27 | 53.50813 | -38.28535 | 45102 ft | 511 kts | 82° |
| 2026-04-20 17:27 | 53.51214 | -38.16640 | 45102 ft | 509 kts | 82° |
| 2026-04-20 17:28 | 53.51603 | -38.04744 | 45100 ft | 511 kts | 82° |
| 2026-04-20 17:28 | 53.51980 | -37.92828 | 45102 ft | 511 kts | 83° |
| 2026-04-20 17:29 | 53.52344 | -37.80999 | 45118 ft | 510 kts | 83° |
| 2026-04-20 17:29 | 53.52699 | -37.69087 | 45099 ft | 510 kts | 83° |
| 2026-04-20 17:30 | 53.53040 | -37.57178 | 45098 ft | 510 kts | 83° |
| 2026-04-20 17:30 | 53.53370 | -37.45270 | 45114 ft | 510 kts | 83° |
| 2026-04-20 17:31 | 53.53686 | -37.33430 | 45103 ft | 511 kts | 83° |
| 2026-04-20 17:31 | 53.53993 | -37.21507 | 45098 ft | 510 kts | 83° |
| 2026-04-20 17:32 | 53.54288 | -37.09578 | 45095 ft | 511 kts | 83° |
| 2026-04-20 17:32 | 53.54571 | -36.97658 | 45091 ft | 510 kts | 83° |
| 2026-04-20 17:33 | 53.54843 | -36.85741 | 45088 ft | 510 kts | 83° |
| 2026-04-20 17:33 | 53.55100 | -36.73886 | 45088 ft | 511 kts | 84° |
| 2026-04-20 17:34 | 53.55347 | -36.61947 | 45079 ft | 511 kts | 84° |
| 2026-04-20 17:34 | 53.55583 | -36.50014 | 45088 ft | 511 kts | 84° |
| 2026-04-20 17:35 | 53.55805 | -36.38157 | 45088 ft | 510 kts | 84° |
| 2026-04-20 17:35 | 53.56017 | -36.26240 | 45087 ft | 510 kts | 84° |
| 2026-04-20 17:36 | 53.56218 | -36.14290 | 45089 ft | 511 kts | 84° |
| 2026-04-20 17:36 | 53.56406 | -36.02339 | 45087 ft | 511 kts | 84° |
| 2026-04-20 17:37 | 53.56581 | -35.90470 | 45079 ft | 511 kts | 85° |
| 2026-04-20 17:37 | 53.56746 | -35.78510 | 45080 ft | 511 kts | 85° |
| 2026-04-20 17:38 | 53.56899 | -35.66555 | 45083 ft | 511 kts | 85° |
| 2026-04-20 17:38 | 53.57040 | -35.54592 | 45073 ft | 512 kts | 85° |
| 2026-04-20 17:39 | 53.57168 | -35.42642 | 45075 ft | 510 kts | 85° |
| 2026-04-20 17:39 | 53.57284 | -35.30780 | 45091 ft | 511 kts | 86° |
| 2026-04-20 17:40 | 53.57389 | -35.18831 | 45079 ft | 510 kts | 86° |
| 2026-04-20 17:40 | 53.57482 | -35.06919 | 45071 ft | 509 kts | 86° |
| 2026-04-20 17:41 | 53.57563 | -34.95001 | 45073 ft | 510 kts | 86° |
| 2026-04-20 17:41 | 53.57633 | -34.83069 | 45072 ft | 510 kts | 86° |
| 2026-04-20 17:42 | 53.57690 | -34.71235 | 45064 ft | 509 kts | 86° |
| 2026-04-20 17:42 | 53.57736 | -34.59321 | 45072 ft | 509 kts | 87° |
| 2026-04-20 17:43 | 53.57769 | -34.47404 | 45069 ft | 509 kts | 87° |
| 2026-04-20 17:43 | 53.57791 | -34.35506 | 45068 ft | 509 kts | 87° |
| 2026-04-20 17:44 | 53.57801 | -34.23689 | 45063 ft | 509 kts | 87° |
| 2026-04-20 17:44 | 53.57799 | -34.11767 | 45059 ft | 509 kts | 87° |
| 2026-04-20 17:45 | 53.57786 | -33.99852 | 45050 ft | 509 kts | 88° |
| 2026-04-20 17:45 | 53.57760 | -33.87940 | 45051 ft | 509 kts | 88° |
| 2026-04-20 17:46 | 53.57724 | -33.76120 | 45060 ft | 509 kts | 88° |
| 2026-04-20 17:46 | 53.57675 | -33.64198 | 45047 ft | 510 kts | 88° |
| 2026-04-20 17:47 | 53.57614 | -33.52265 | 45044 ft | 510 kts | 88° |
| 2026-04-20 17:47 | 53.57542 | -33.40348 | 45040 ft | 509 kts | 88° |
| 2026-04-20 17:48 | 53.57457 | -33.28440 | 45035 ft | 509 kts | 88° |
| 2026-04-20 17:48 | 53.57361 | -33.16599 | 45037 ft | 510 kts | 88° |
| 2026-04-20 17:49 | 53.57253 | -33.04670 | 45042 ft | 510 kts | 88° |
| 2026-04-20 17:49 | 53.57134 | -32.92747 | 45032 ft | 510 kts | 89° |
| 2026-04-20 17:50 | 53.57001 | -32.80819 | 45020 ft | 510 kts | 89° |
| 2026-04-20 17:50 | 53.56859 | -32.68963 | 45023 ft | 510 kts | 89° |
| 2026-04-20 17:51 | 53.56703 | -32.57026 | 45027 ft | 510 kts | 89° |
| 2026-04-20 17:51 | 53.56536 | -32.45092 | 45018 ft | 510 kts | 89° |
| 2026-04-20 17:52 | 53.56356 | -32.33154 | 45016 ft | 511 kts | 89° |
| 2026-04-20 17:52 | 53.56165 | -32.21296 | 45006 ft | 510 kts | 89° |
| 2026-04-20 17:53 | 53.55963 | -32.09368 | 45000 ft | 510 kts | 89° |
| 2026-04-20 17:53 | 53.55748 | -31.97460 | 44993 ft | 509 kts | 90° |
| 2026-04-20 17:54 | 53.55522 | -31.85549 | 44994 ft | 510 kts | 89° |
| 2026-04-20 17:54 | 53.55283 | -31.73640 | 44984 ft | 509 kts | 90° |
| 2026-04-20 17:55 | 53.55035 | -31.61815 | 44986 ft | 510 kts | 90° |
| 2026-04-20 17:55 | 53.54773 | -31.49912 | 44976 ft | 508 kts | 90° |
| 2026-04-20 17:56 | 53.54501 | -31.38094 | 44960 ft | 506 kts | 89° |
| 2026-04-20 17:56 | 53.54219 | -31.26279 | 44955 ft | 505 kts | 90° |
| 2026-04-20 17:57 | 53.53925 | -31.14536 | 44949 ft | 506 kts | 90° |
| 2026-04-20 17:57 | 53.53619 | -31.02715 | 44942 ft | 506 kts | 90° |
| 2026-04-20 17:58 | 53.53300 | -30.90892 | 44945 ft | 507 kts | 90° |
| 2026-04-20 17:58 | 53.52970 | -30.79075 | 44922 ft | 507 kts | 91° |
| 2026-04-20 17:59 | 53.52628 | -30.67256 | 44915 ft | 507 kts | 91° |
| 2026-04-20 17:59 | 53.52277 | -30.55506 | 44916 ft | 506 kts | 91° |
| 2026-04-20 18:00 | 53.51912 | -30.43690 | 44908 ft | 506 kts | 91° |
| 2026-04-20 18:00 | 53.51536 | -30.31873 | 44919 ft | 507 kts | 91° |
| 2026-04-20 18:01 | 53.51147 | -30.20092 | 44904 ft | 504 kts | 91° |
| 2026-04-20 18:01 | 53.50754 | -30.08437 | 44902 ft | 504 kts | 91° |
| 2026-04-20 18:02 | 53.50344 | -29.96713 | 44883 ft | 502 kts | 92° |
| 2026-04-20 18:02 | 53.49925 | -29.84995 | 44888 ft | 502 kts | 92° |
| 2026-04-20 18:03 | 53.49493 | -29.73275 | 44896 ft | 502 kts | 92° |
| 2026-04-20 18:03 | 53.49054 | -29.61657 | 44888 ft | 501 kts | 92° |
| 2026-04-20 18:04 | 53.48603 | -29.50027 | 44887 ft | 499 kts | 92° |
| 2026-04-20 18:04 | 53.48141 | -29.38407 | 44878 ft | 499 kts | 92° |
| 2026-04-20 18:05 | 53.47426 | -29.20952 | 44886 ft | 500 kts | 92° |
| 2026-04-20 18:05 | 53.46939 | -29.09397 | 44877 ft | 501 kts | 93° |
| 2026-04-20 18:06 | 53.46434 | -28.97725 | 44899 ft | 500 kts | 93° |
| 2026-04-20 18:06 | 53.45919 | -28.86058 | 44900 ft | 501 kts | 93° |
| 2026-04-20 18:07 | 53.45393 | -28.74401 | 44910 ft | 501 kts | 92° |
| 2026-04-20 18:07 | 53.44860 | -28.62838 | 44906 ft | 501 kts | 93° |
| 2026-04-20 18:08 | 53.44310 | -28.51195 | 44912 ft | 501 kts | 93° |
| 2026-04-20 18:08 | 53.43751 | -28.39540 | 44924 ft | 500 kts | 93° |
| 2026-04-20 18:09 | 53.43179 | -28.27904 | 44938 ft | 500 kts | 94° |
| 2026-04-20 18:09 | 53.42600 | -28.16317 | 44937 ft | 505 kts | 94° |
| 2026-04-20 18:10 | 53.42000 | -28.04599 | 44944 ft | 504 kts | 94° |
| 2026-04-20 18:10 | 53.41393 | -27.92904 | 44942 ft | 504 kts | 94° |
| 2026-04-20 18:11 | 53.40772 | -27.81202 | 44961 ft | 504 kts | 94° |
| 2026-04-20 18:11 | 53.40146 | -27.69611 | 44971 ft | 502 kts | 94° |
| 2026-04-20 18:12 | 53.39505 | -27.57968 | 44967 ft | 502 kts | 94° |
| 2026-04-20 18:12 | 53.38854 | -27.46325 | 44970 ft | 502 kts | 94° |
| 2026-04-20 18:13 | 53.38190 | -27.34687 | 44982 ft | 502 kts | 94° |
| 2026-04-20 18:13 | 53.37513 | -27.22998 | 44976 ft | 506 kts | 95° |
| 2026-04-20 18:14 | 53.36825 | -27.11353 | 44983 ft | 505 kts | 95° |
| 2026-04-20 18:14 | 53.36125 | -26.99670 | 44984 ft | 504 kts | 95° |
| 2026-04-20 18:15 | 53.35413 | -26.87978 | 44989 ft | 505 kts | 95° |
| 2026-04-20 18:15 | 53.34688 | -26.76287 | 44990 ft | 505 kts | 95° |
| 2026-04-20 18:16 | 53.33958 | -26.64686 | 44992 ft | 505 kts | 95° |
| 2026-04-20 18:16 | 53.33210 | -26.53010 | 44996 ft | 504 kts | 95° |
| 2026-04-20 18:17 | 53.32454 | -26.41364 | 45003 ft | 504 kts | 95° |
| 2026-04-20 18:17 | 53.31685 | -26.29700 | 45004 ft | 505 kts | 95° |
| 2026-04-20 18:18 | 53.30908 | -26.18098 | 45004 ft | 505 kts | 95° |
| 2026-04-20 18:18 | 53.30117 | -26.06447 | 45004 ft | 504 kts | 96° |
| 2026-04-20 18:19 | 53.29314 | -25.94802 | 45002 ft | 505 kts | 96° |
| 2026-04-20 18:19 | 53.28500 | -25.83156 | 45011 ft | 504 kts | 96° |
| 2026-04-20 18:20 | 53.27680 | -25.71610 | 45009 ft | 504 kts | 96° |
| 2026-04-20 18:20 | 53.26844 | -25.59991 | 45012 ft | 504 kts | 96° |
| 2026-04-20 18:21 | 53.25996 | -25.48364 | 45018 ft | 504 kts | 96° |
| 2026-04-20 18:21 | 53.25137 | -25.36746 | 45018 ft | 504 kts | 96° |
| 2026-04-20 18:22 | 53.24274 | -25.25218 | 45019 ft | 503 kts | 96° |
| 2026-04-20 18:22 | 53.23395 | -25.13646 | 45016 ft | 503 kts | 97° |
| 2026-04-20 18:23 | 53.22505 | -25.02072 | 45027 ft | 503 kts | 97° |
| 2026-04-20 18:23 | 53.21602 | -24.90492 | 45025 ft | 503 kts | 97° |
| 2026-04-20 18:24 | 53.20689 | -24.78931 | 45027 ft | 503 kts | 97° |
| 2026-04-20 18:24 | 53.19772 | -24.67459 | 45027 ft | 502 kts | 97° |
| 2026-04-20 18:25 | 53.18840 | -24.55939 | 45023 ft | 502 kts | 97° |
| 2026-04-20 18:25 | 53.17895 | -24.44408 | 45026 ft | 503 kts | 97° |
| 2026-04-20 18:26 | 53.16938 | -24.32868 | 45030 ft | 502 kts | 97° |
| 2026-04-20 18:26 | 53.15978 | -24.21425 | 45025 ft | 502 kts | 97° |
| 2026-04-20 18:27 | 53.14999 | -24.09914 | 45026 ft | 502 kts | 97° |
| 2026-04-20 18:27 | 53.14012 | -23.98422 | 45025 ft | 501 kts | 98° |
| 2026-04-20 18:28 | 53.13014 | -23.86942 | 45021 ft | 501 kts | 98° |
| 2026-04-20 18:28 | 53.12013 | -23.75553 | 45042 ft | 501 kts | 98° |
| 2026-04-20 18:29 | 53.10989 | -23.64045 | 45026 ft | 504 kts | 98° |
| 2026-04-20 18:29 | 53.09951 | -23.52500 | 45027 ft | 504 kts | 98° |
| 2026-04-20 18:30 | 53.08905 | -23.41000 | 45026 ft | 502 kts | 98° |
| 2026-04-20 18:30 | 53.07858 | -23.29614 | 45021 ft | 501 kts | 98° |
| 2026-04-20 18:31 | 53.06791 | -23.18139 | 45020 ft | 502 kts | 98° |
| 2026-04-20 18:31 | 53.05712 | -23.06665 | 45022 ft | 502 kts | 98° |
| 2026-04-20 18:32 | 53.04623 | -22.95196 | 45018 ft | 502 kts | 98° |
| 2026-04-20 18:32 | 53.03533 | -22.83835 | 45009 ft | 496 kts | 99° |
| 2026-04-20 18:33 | 53.02434 | -22.72507 | 45034 ft | 504 kts | 99° |
| 2026-04-20 18:33 | 53.01308 | -22.61015 | 45038 ft | 503 kts | 99° |
| 2026-04-20 18:34 | 53.00175 | -22.49573 | 45027 ft | 502 kts | 99° |
| 2026-04-20 18:34 | 52.99032 | -22.38143 | 45030 ft | 502 kts | 99° |
| 2026-04-20 18:35 | 52.97889 | -22.26830 | 45036 ft | 496 kts | 99° |
| 2026-04-20 18:35 | 52.96741 | -22.15595 | 45042 ft | 493 kts | 99° |
| 2026-04-20 18:36 | 52.95592 | -22.04425 | 45023 ft | 491 kts | 99° |
| 2026-04-20 18:36 | 52.94427 | -21.93231 | 45032 ft | 491 kts | 99° |
| 2026-04-20 18:37 | 52.93259 | -21.82102 | 45053 ft | 495 kts | 99° |
| 2026-04-20 18:37 | 52.92072 | -21.70903 | 45033 ft | 494 kts | 99° |
| 2026-04-20 18:38 | 52.90874 | -21.59711 | 45039 ft | 491 kts | 99° |
| 2026-04-20 18:38 | 52.89669 | -21.48554 | 45067 ft | 492 kts | 99° |
| 2026-04-20 18:39 | 52.88463 | -21.37490 | 45051 ft | 493 kts | 100° |
| 2026-04-20 18:39 | 52.87238 | -21.26345 | 45056 ft | 491 kts | 100° |
| 2026-04-20 18:40 | 52.86001 | -21.15203 | 45070 ft | 492 kts | 100° |
| 2026-04-20 18:40 | 52.84752 | -21.04059 | 45056 ft | 494 kts | 100° |
| 2026-04-20 18:41 | 52.83502 | -20.92984 | 45053 ft | 492 kts | 100° |
| 2026-04-20 18:41 | 52.82228 | -20.81810 | 45078 ft | 494 kts | 100° |
| 2026-04-20 18:42 | 52.80945 | -20.70654 | 45067 ft | 495 kts | 100° |
| 2026-04-20 18:42 | 52.79654 | -20.59510 | 45043 ft | 493 kts | 101° |
| 2026-04-20 18:43 | 52.78355 | -20.48431 | 45070 ft | 492 kts | 101° |
| 2026-04-20 18:43 | 52.77047 | -20.37326 | 45063 ft | 494 kts | 101° |
| 2026-04-20 18:44 | 52.75725 | -20.26235 | 45048 ft | 492 kts | 101° |
| 2026-04-20 18:44 | 52.74393 | -20.15116 | 45073 ft | 493 kts | 101° |
| 2026-04-20 18:45 | 52.73047 | -20.04006 | 45075 ft | 495 kts | 101° |
| 2026-04-20 18:45 | 52.71702 | -19.92988 | 45068 ft | 494 kts | 101° |
| 2026-04-20 18:46 | 52.70336 | -19.81879 | 45079 ft | 492 kts | 101° |
| 2026-04-20 18:46 | 52.68961 | -19.70791 | 45081 ft | 495 kts | 101° |
| 2026-04-20 18:47 | 52.67578 | -19.59730 | 45069 ft | 494 kts | 101° |
| 2026-04-20 18:47 | 52.66190 | -19.48722 | 45079 ft | 492 kts | 101° |
| 2026-04-20 18:48 | 52.64784 | -19.37658 | 45083 ft | 495 kts | 102° |
| 2026-04-20 18:48 | 52.63366 | -19.26589 | 45069 ft | 496 kts | 102° |
| 2026-04-20 18:49 | 52.61931 | -19.15478 | 45083 ft | 494 kts | 102° |
| 2026-04-20 18:49 | 52.60498 | -19.04462 | 45102 ft | 497 kts | 102° |
| 2026-04-20 18:50 | 52.59046 | -18.93394 | 45077 ft | 495 kts | 102° |
| 2026-04-20 18:50 | 52.57584 | -18.82329 | 45096 ft | 494 kts | 102° |
| 2026-04-20 18:51 | 52.56111 | -18.71264 | 45101 ft | 498 kts | 102° |
| 2026-04-20 18:51 | 52.54630 | -18.60236 | 45097 ft | 498 kts | 102° |
| 2026-04-20 18:52 | 52.53128 | -18.49117 | 45104 ft | 497 kts | 102° |
| 2026-04-20 18:52 | 52.51617 | -18.38035 | 45104 ft | 498 kts | 102° |
| 2026-04-20 18:53 | 52.50098 | -18.26968 | 45085 ft | 497 kts | 103° |
| 2026-04-20 18:53 | 52.48572 | -18.15938 | 45118 ft | 498 kts | 103° |
| 2026-04-20 18:54 | 52.47024 | -18.04826 | 45108 ft | 502 kts | 103° |
| 2026-04-20 18:54 | 52.45466 | -17.93722 | 45096 ft | 499 kts | 103° |
| 2026-04-20 18:55 | 52.43894 | -17.82611 | 45119 ft | 499 kts | 103° |
| 2026-04-20 18:55 | 52.42326 | -17.71602 | 45121 ft | 502 kts | 103° |
| 2026-04-20 18:56 | 52.40736 | -17.60512 | 45102 ft | 500 kts | 103° |
| 2026-04-20 18:56 | 52.39124 | -17.49370 | 45133 ft | 502 kts | 103° |
| 2026-04-20 18:57 | 52.37507 | -17.38254 | 45114 ft | 503 kts | 103° |
| 2026-04-20 18:57 | 52.35889 | -17.27215 | 45123 ft | 501 kts | 103° |
| 2026-04-20 18:58 | 52.34246 | -17.16093 | 45136 ft | 503 kts | 103° |
| 2026-04-20 18:58 | 52.32596 | -17.04996 | 45121 ft | 504 kts | 103° |
| 2026-04-20 18:59 | 52.30925 | -16.93839 | 45127 ft | 505 kts | 103° |
| 2026-04-20 18:59 | 52.29254 | -16.82758 | 45136 ft | 506 kts | 103° |
| 2026-04-20 19:00 | 52.27564 | -16.71627 | 45150 ft | 506 kts | 104° |
| 2026-04-20 19:00 | 52.25859 | -16.60475 | 45138 ft | 505 kts | 104° |
| 2026-04-20 19:01 | 52.24145 | -16.49343 | 45129 ft | 507 kts | 104° |
| 2026-04-20 19:01 | 52.22427 | -16.38264 | 45130 ft | 509 kts | 104° |
| 2026-04-20 19:02 | 52.20681 | -16.27076 | 45143 ft | 508 kts | 104° |
| 2026-04-20 19:02 | 52.18926 | -16.15906 | 45143 ft | 509 kts | 104° |
| 2026-04-20 19:03 | 52.17160 | -16.04749 | 45144 ft | 508 kts | 104° |
| 2026-04-20 19:03 | 52.15383 | -15.93593 | 45139 ft | 508 kts | 104° |
| 2026-04-20 19:04 | 52.13593 | -15.82434 | 45144 ft | 512 kts | 104° |
| 2026-04-20 19:04 | 52.11799 | -15.71323 | 45151 ft | 510 kts | 104° |
| 2026-04-20 19:05 | 52.09984 | -15.60151 | 45148 ft | 511 kts | 104° |
| 2026-04-20 19:05 | 52.08159 | -15.48993 | 45142 ft | 511 kts | 104° |
| 2026-04-20 19:06 | 52.06322 | -15.37840 | 45149 ft | 511 kts | 104° |
| 2026-04-20 19:06 | 52.04487 | -15.26768 | 45143 ft | 511 kts | 104° |
| 2026-04-20 19:07 | 52.02630 | -15.15636 | 45161 ft | 511 kts | 105° |
| 2026-04-20 19:07 | 52.00769 | -15.04515 | 45152 ft | 510 kts | 104° |
| 2026-04-20 19:08 | 52.00068 | -14.87373 | 45154 ft | 509 kts | 89° |
| 2026-04-20 19:09 | 51.99942 | -14.75860 | 45122 ft | 512 kts | 98° |
| 2026-04-20 19:09 | 51.98090 | -14.64784 | 45167 ft | 514 kts | 108° |
| 2026-04-20 19:10 | 51.95781 | -14.53818 | 45152 ft | 513 kts | 105° |
| 2026-04-20 19:10 | 51.93992 | -14.42623 | 45159 ft | 513 kts | 105° |
| 2026-04-20 19:11 | 51.91872 | -14.31584 | 45166 ft | 514 kts | 106° |
| 2026-04-20 19:11 | 51.89936 | -14.20445 | 45156 ft | 514 kts | 106° |
| 2026-04-20 19:12 | 51.87863 | -14.09332 | 45158 ft | 517 kts | 106° |
| 2026-04-20 19:12 | 51.86188 | -14.00070 | 45160 ft | 516 kts | 106° |
| 2026-04-20 19:13 | 51.83799 | -13.87160 | 45158 ft | 515 kts | 106° |
| 2026-04-20 19:13 | 51.82080 | -13.77855 | 45159 ft | 516 kts | 106° |
| 2026-04-20 19:14 | 51.80024 | -13.66836 | 45158 ft | 516 kts | 107° |
| 2026-04-20 19:14 | 51.77938 | -13.55711 | 45160 ft | 518 kts | 106° |
| 2026-04-20 19:15 | 51.75836 | -13.44578 | 45161 ft | 518 kts | 107° |
| 2026-04-20 19:15 | 51.73730 | -13.33478 | 45166 ft | 517 kts | 107° |
| 2026-04-20 19:16 | 51.71627 | -13.22462 | 45165 ft | 517 kts | 107° |
| 2026-04-20 19:16 | 51.69497 | -13.11373 | 45155 ft | 519 kts | 107° |
| 2026-04-20 19:17 | 51.67348 | -13.00247 | 45166 ft | 520 kts | 107° |
| 2026-04-20 19:17 | 51.65188 | -12.89129 | 45163 ft | 520 kts | 107° |
| 2026-04-20 19:18 | 51.63019 | -12.78029 | 45163 ft | 520 kts | 107° |
| 2026-04-20 19:18 | 51.60839 | -12.66942 | 45164 ft | 520 kts | 107° |
| 2026-04-20 19:19 | 51.58662 | -12.55926 | 45159 ft | 522 kts | 107° |
| 2026-04-20 19:19 | 51.56452 | -12.44810 | 45163 ft | 522 kts | 107° |
| 2026-04-20 19:20 | 51.54230 | -12.33702 | 45172 ft | 522 kts | 107° |
| 2026-04-20 19:20 | 51.52002 | -12.22619 | 45165 ft | 522 kts | 107° |
| 2026-04-20 19:21 | 51.49761 | -12.11538 | 45168 ft | 522 kts | 107° |
| 2026-04-20 19:21 | 51.47520 | -12.00521 | 45157 ft | 525 kts | 108° |
| 2026-04-20 19:22 | 51.45247 | -11.89403 | 45159 ft | 525 kts | 108° |
| 2026-04-20 19:22 | 51.42962 | -11.78296 | 45165 ft | 524 kts | 108° |
| 2026-04-20 19:23 | 51.40667 | -11.67201 | 45170 ft | 525 kts | 108° |
| 2026-04-20 19:23 | 51.38362 | -11.56117 | 45171 ft | 524 kts | 108° |
| 2026-04-20 19:24 | 51.36056 | -11.45088 | 45171 ft | 527 kts | 108° |
| 2026-04-20 19:24 | 51.33722 | -11.33987 | 45168 ft | 527 kts | 108° |
| 2026-04-20 19:25 | 51.31375 | -11.22888 | 45177 ft | 526 kts | 108° |
| 2026-04-20 19:25 | 51.29020 | -11.11813 | 45177 ft | 527 kts | 108° |
| 2026-04-20 19:26 | 51.26655 | -11.00743 | 45175 ft | 527 kts | 109° |
| 2026-04-20 19:26 | 51.24264 | -10.89622 | 45184 ft | 531 kts | 109° |
| 2026-04-20 19:27 | 51.21881 | -10.78590 | 45168 ft | 530 kts | 109° |
| 2026-04-20 19:27 | 51.19467 | -10.67481 | 45185 ft | 529 kts | 109° |
| 2026-04-20 19:28 | 51.17050 | -10.56415 | 45173 ft | 530 kts | 109° |
| 2026-04-20 19:28 | 51.14618 | -10.45340 | 45174 ft | 529 kts | 109° |
| 2026-04-20 19:29 | 51.12161 | -10.34215 | 45192 ft | 534 kts | 109° |
| 2026-04-20 19:29 | 51.09716 | -10.23195 | 45174 ft | 531 kts | 109° |
| 2026-04-20 19:30 | 51.07237 | -10.12091 | 45184 ft | 532 kts | 109° |
| 2026-04-20 19:30 | 51.04755 | -10.01023 | 45186 ft | 533 kts | 109° |
| 2026-04-20 19:31 | 51.02257 | -9.89948 | 45181 ft | 531 kts | 110° |
| 2026-04-20 19:31 | 50.99755 | -9.78902 | 45186 ft | 533 kts | 110° |
| 2026-04-20 19:32 | 50.97256 | -9.67946 | 45186 ft | 531 kts | 110° |
| 2026-04-20 19:32 | 50.94834 | -9.57386 | 45197 ft | 533 kts | 110° |
| 2026-04-20 19:33 | 50.93485 | -9.51491 | 45173 ft | 531 kts | 110° |
| 2026-04-20 19:33 | 50.90934 | -9.40466 | 45190 ft | 535 kts | 110° |
| 2026-04-20 19:34 | 50.88377 | -9.29430 | 45183 ft | 533 kts | 110° |
| 2026-04-20 19:34 | 50.85796 | -9.18374 | 45199 ft | 535 kts | 110° |
| 2026-04-20 19:35 | 50.83215 | -9.07362 | 45184 ft | 536 kts | 110° |
| 2026-04-20 19:35 | 50.80632 | -8.96401 | 45197 ft | 533 kts | 110° |
| 2026-04-20 19:36 | 50.78025 | -8.85397 | 45192 ft | 537 kts | 110° |
| 2026-04-20 19:36 | 50.75405 | -8.74391 | 45189 ft | 534 kts | 110° |
| 2026-04-20 19:37 | 50.72772 | -8.63388 | 45201 ft | 536 kts | 111° |
| 2026-04-20 19:37 | 50.70135 | -8.52417 | 45185 ft | 535 kts | 111° |
| 2026-04-20 19:38 | 50.67480 | -8.41441 | 45210 ft | 535 kts | 111° |
| 2026-04-20 19:38 | 50.64838 | -8.30565 | 45184 ft | 535 kts | 111° |
| 2026-04-20 19:39 | 50.62169 | -8.19622 | 45206 ft | 534 kts | 111° |
| 2026-04-20 19:39 | 50.59488 | -8.08700 | 45193 ft | 535 kts | 111° |
| 2026-04-20 19:40 | 50.56795 | -7.97770 | 45196 ft | 536 kts | 111° |
| 2026-04-20 19:40 | 50.54080 | -7.86821 | 45202 ft | 538 kts | 111° |
| 2026-04-20 19:41 | 50.51386 | -7.75991 | 45198 ft | 535 kts | 111° |
| 2026-04-20 19:41 | 50.48655 | -7.65080 | 45206 ft | 536 kts | 111° |
| 2026-04-20 19:42 | 50.45922 | -7.54206 | 45203 ft | 536 kts | 111° |
| 2026-04-20 19:42 | 50.43173 | -7.43330 | 45207 ft | 535 kts | 111° |
| 2026-04-20 19:43 | 50.40885 | -7.34310 | 45202 ft | 536 kts | 112° |
| 2026-04-20 19:43 | 50.37666 | -7.21687 | 45202 ft | 537 kts | 112° |
| 2026-04-20 19:44 | 50.34882 | -7.10823 | 45207 ft | 538 kts | 112° |
| 2026-04-20 19:44 | 50.32090 | -6.99987 | 45211 ft | 536 kts | 112° |
| 2026-04-20 19:45 | 50.29287 | -6.89153 | 45209 ft | 537 kts | 112° |
| 2026-04-20 19:45 | 50.26496 | -6.78418 | 45209 ft | 537 kts | 112° |
| 2026-04-20 19:46 | 50.23672 | -6.67609 | 45211 ft | 537 kts | 112° |
| 2026-04-20 19:46 | 50.20839 | -6.56815 | 45201 ft | 538 kts | 112° |
| 2026-04-20 19:47 | 50.17988 | -6.46005 | 45208 ft | 538 kts | 112° |
| 2026-04-20 19:47 | 50.15133 | -6.35228 | 45209 ft | 538 kts | 112° |
| 2026-04-20 19:48 | 50.12286 | -6.24537 | 45206 ft | 537 kts | 112° |
| 2026-04-20 19:48 | 50.09411 | -6.13787 | 45204 ft | 538 kts | 112° |
| 2026-04-20 19:49 | 50.06526 | -6.03048 | 45200 ft | 537 kts | 112° |
| 2026-04-20 19:49 | 50.03631 | -5.92322 | 45190 ft | 538 kts | 113° |
| 2026-04-20 19:50 | 50.00721 | -5.81592 | 45199 ft | 539 kts | 113° |
| 2026-04-20 19:50 | 49.97797 | -5.70860 | 45198 ft | 539 kts | 113° |
| 2026-04-20 19:51 | 49.94883 | -5.60214 | 45187 ft | 539 kts | 113° |
| 2026-04-20 19:51 | 49.91941 | -5.49513 | 45190 ft | 539 kts | 113° |
| 2026-04-20 19:52 | 49.88990 | -5.38825 | 45189 ft | 540 kts | 113° |
| 2026-04-20 19:52 | 49.86021 | -5.28126 | 45197 ft | 540 kts | 113° |